createdAt,value
2022-08-19T00:00:10.456Z,100008.53
2022-08-19T00:05:41.552Z,100004.38
2022-08-19T00:11:10.039Z,100016.75
2022-08-19T00:16:48.673Z,100017.97
2022-08-19T00:22:19.551Z,100014.38
2022-08-19T00:27:48.548Z,100021.97
2022-08-19T00:33:17.706Z,100022.38
2022-08-19T00:38:48.379Z,100014.69
2022-08-19T00:44:20.333Z,100018.59
2022-08-19T00:49:52.293Z,100021.53
2022-08-19T00:55:24.422Z,100010.69
2022-08-19T01:00:52.916Z,100013.56
2022-08-19T01:06:22.167Z,100021.16
2022-08-19T01:11:52.892Z,100016.69
2022-08-19T01:17:21.509Z,100027.28
2022-08-19T01:22:53.376Z,100017.38
2022-08-19T01:28:39.651Z,100009.28
2022-08-19T01:34:09.133Z,100012.31
2022-08-19T01:39:40.888Z,100016.63
2022-08-19T01:45:10.742Z,100006.06
2022-08-19T01:50:39.759Z,100019.28
2022-08-19T01:56:10.286Z,100012.13
2022-08-19T02:01:38.634Z,100020.41
2022-08-19T02:07:09.097Z,100019.28
2022-08-19T02:12:39.366Z,100005.97
2022-08-19T02:18:09.284Z,100012.00
2022-08-19T02:23:37.656Z,100005.66
2022-08-19T02:29:08.081Z,100006.38
2022-08-19T02:34:36.949Z,100012.53
2022-08-19T02:40:12.268Z,100020.22
2022-08-19T02:45:43.207Z,100020.09
2022-08-19T02:51:17.325Z,100024.19
2022-08-19T02:56:47.399Z,100028.47
2022-08-19T03:02:17.067Z,100032.78
2022-08-19T03:07:46.264Z,100037.69
2022-08-19T03:13:15.840Z,100035.13
2022-08-19T03:18:46.119Z,100041.19
2022-08-19T03:24:15.231Z,100031.66
2022-08-19T03:29:44.105Z,100028.47
2022-08-19T03:35:14.097Z,100036.06
2022-08-19T03:40:43.802Z,100045.91
2022-08-19T03:46:13.993Z,100053.91
2022-08-19T03:51:44.691Z,100056.56
2022-08-19T03:57:13.636Z,100066.59
2022-08-19T04:02:42.937Z,100046.97
2022-08-19T04:08:28.227Z,100059.94
2022-08-19T04:13:56.907Z,100037.50
2022-08-19T04:19:26.263Z,100033.44
2022-08-19T04:24:55.910Z,100031.91
2022-08-19T04:30:25.494Z,100041.75
2022-08-19T04:35:54.862Z,100045.41
2022-08-19T04:41:43.157Z,100039.75
2022-08-19T04:47:11.710Z,100049.66
2022-08-19T04:52:43.752Z,100054.09
2022-08-19T04:58:13.990Z,100058.19
2022-08-19T05:03:44.043Z,100071.28
2022-08-19T05:09:12.545Z,100068.72
2022-08-19T05:14:43.147Z,100067.75
2022-08-19T05:20:29.570Z,100089.81
2022-08-19T05:25:58.899Z,100082.81
2022-08-19T05:31:28.911Z,100093.91
2022-08-19T05:36:59.710Z,100096.22
2022-08-19T05:42:28.485Z,100089.34
2022-08-19T05:47:59.302Z,100086.56
2022-08-19T05:53:27.490Z,100090.75
2022-08-19T05:58:57.149Z,100085.25
2022-08-19T06:04:27.945Z,100086.00
2022-08-19T06:10:00.620Z,100098.56
2022-08-19T06:15:29.721Z,100094.75
2022-08-19T06:21:00.247Z,100089.81
2022-08-19T06:26:29.049Z,100095.03
2022-08-19T06:31:59.692Z,100108.03
2022-08-19T06:37:30.170Z,100108.94
2022-08-19T06:43:01.255Z,100118.25
2022-08-19T06:48:34.657Z,100115.22
2022-08-19T06:54:08.235Z,100118.03
2022-08-19T06:59:48.606Z,100127.31
2022-08-19T07:05:18.267Z,100126.78
2022-08-19T07:10:50.177Z,100119.47
2022-08-19T07:16:21.400Z,100121.72
2022-08-19T07:22:00.459Z,100128.97
2022-08-19T07:27:31.246Z,100121.09
2022-08-19T07:33:03.357Z,100112.56
2022-08-19T07:38:32.858Z,100119.16
2022-08-19T07:44:04.656Z,100124.91
2022-08-19T07:49:33.583Z,100122.91
2022-08-19T07:55:04.890Z,100118.00
2022-08-19T08:00:35.023Z,100118.41
2022-08-19T08:06:20.567Z,100106.69
2022-08-19T08:11:51.315Z,100112.75
2022-08-19T08:17:30.902Z,100116.19
2022-08-19T08:23:27.353Z,100136.09
2022-08-19T08:28:57.276Z,100135.84
2022-08-19T08:34:27.267Z,100127.50
2022-08-19T08:39:56.551Z,100127.78
2022-08-19T08:45:26.443Z,100129.38
2022-08-19T08:50:57.813Z,100126.66
2022-08-19T08:56:27.305Z,100119.81
2022-08-19T09:01:57.887Z,100131.25
2022-08-19T09:07:43.615Z,100136.53
2022-08-19T09:13:20.226Z,100112.75
2022-08-19T09:18:53.693Z,100128.88
2022-08-19T09:24:24.287Z,100129.25
2022-08-19T09:29:59.927Z,100132.91
2022-08-19T09:35:31.730Z,100131.97
2022-08-19T09:41:05.740Z,100127.81
2022-08-19T09:46:36.860Z,100127.53
2022-08-19T09:58:01.410Z,100125.31
2022-08-19T10:03:31.262Z,100124.06
2022-08-19T10:08:59.972Z,100120.19
2022-08-19T10:14:30.081Z,100121.03
2022-08-19T10:19:58.391Z,100114.44
2022-08-19T10:25:27.994Z,100109.69
2022-08-19T10:30:58.046Z,100114.13
2022-08-19T10:36:28.055Z,100127.34
2022-08-19T10:42:00.091Z,100128.13
2022-08-19T10:47:31.740Z,100105.78
2022-08-19T10:53:09.691Z,100109.03
2022-08-19T10:58:38.743Z,100105.88
2022-08-19T11:04:12.181Z,100107.50
2022-08-19T11:09:42.241Z,100089.19
2022-08-19T11:15:12.219Z,100084.84
2022-08-19T11:20:41.873Z,100107.31
2022-08-19T11:26:10.488Z,100101.28
2022-08-19T11:31:40.582Z,100096.13
2022-08-19T11:37:10.757Z,100090.06
2022-08-19T11:42:57.719Z,100102.66
2022-08-19T11:48:26.821Z,100098.19
2022-08-19T11:53:58.329Z,100097.09
2022-08-19T11:59:27.857Z,100087.63
2022-08-19T12:04:58.523Z,100074.41
2022-08-19T12:10:28.959Z,100080.53
2022-08-19T12:15:58.138Z,100113.03
2022-08-19T12:21:28.915Z,100131.47
2022-08-19T12:27:00.850Z,100130.78
2022-08-19T12:32:31.774Z,100122.75
2022-08-19T12:38:01.069Z,100127.22
2022-08-19T12:43:31.372Z,100142.13
2022-08-19T12:49:00.492Z,100133.59
2022-08-19T12:54:33.580Z,100130.63
2022-08-19T13:00:08.113Z,100144.47
2022-08-19T13:05:36.617Z,100148.47
2022-08-19T13:11:13.056Z,100173.72
2022-08-19T13:16:44.174Z,100199.34
2022-08-19T13:22:13.340Z,100201.47
2022-08-19T13:27:44.067Z,100200.94
2022-08-19T13:33:16.111Z,100204.19
2022-08-19T13:38:46.410Z,100218.78
2022-08-19T13:44:16.488Z,100238.94
2022-08-19T13:49:47.203Z,100236.47
2022-08-19T13:55:15.650Z,100247.13
2022-08-19T14:00:53.625Z,100247.94
2022-08-19T14:06:24.452Z,100258.16
2022-08-19T14:11:53.604Z,100290.81
2022-08-19T14:17:22.685Z,100283.97
2022-08-19T14:22:53.922Z,100257.19
2022-08-19T14:28:23.303Z,100232.97
2022-08-19T14:33:56.288Z,100223.19
2022-08-19T14:39:25.746Z,100205.41
2022-08-19T14:44:54.863Z,100186.44
2022-08-19T14:50:23.596Z,100182.03
2022-08-19T14:55:53.824Z,100187.06
2022-08-19T15:01:23.571Z,100192.59
2022-08-19T15:06:52.794Z,100198.13
2022-08-19T15:12:23.036Z,100176.59
2022-08-19T15:17:51.384Z,100159.44
2022-08-19T15:23:21.403Z,100136.94
2022-08-19T15:28:52.736Z,100150.72
2022-08-19T15:34:21.669Z,100170.34
2022-08-19T15:39:50.362Z,100164.66
2022-08-19T15:45:22.425Z,100175.50
2022-08-19T15:50:51.748Z,100207.38
2022-08-19T15:56:22.695Z,100248.19
2022-08-19T16:02:13.520Z,100283.25
2022-08-19T16:07:43.466Z,100301.09
2022-08-19T16:13:12.406Z,100305.66
2022-08-19T16:18:42.599Z,100313.31
2022-08-19T16:24:13.135Z,100311.69
2022-08-19T16:29:41.559Z,100306.63
2022-08-19T16:35:12.231Z,100289.78
2022-08-19T16:40:45.000Z,100287.41
2022-08-19T16:46:18.720Z,100265.34
2022-08-19T16:51:50.492Z,100268.91
2022-08-19T16:57:20.049Z,100265.19
2022-08-19T17:02:48.274Z,100262.16
2022-08-19T17:08:18.902Z,100263.22
2022-08-19T17:13:48.344Z,100265.38
2022-08-19T17:19:17.553Z,100257.38
2022-08-19T17:24:47.797Z,100248.81
2022-08-19T17:30:16.429Z,100258.81
2022-08-19T17:35:45.582Z,100272.88
2022-08-19T17:41:16.086Z,100280.09
2022-08-19T17:46:45.208Z,100290.94
2022-08-19T17:52:14.369Z,100307.94
2022-08-19T17:57:46.778Z,100304.22
2022-08-19T18:03:15.937Z,100293.44
2022-08-19T18:08:45.031Z,100283.59
2022-08-19T18:14:15.379Z,100296.28
2022-08-19T18:19:44.941Z,100310.47
2022-08-19T18:25:14.887Z,100301.84
2022-08-19T18:30:44.637Z,100299.56
2022-08-19T18:36:13.516Z,100290.56
2022-08-19T18:41:59.476Z,100293.09
2022-08-19T18:47:56.107Z,100296.22
2022-08-19T18:53:25.956Z,100294.41
2022-08-19T18:58:55.827Z,100301.94
2022-08-19T19:04:27.355Z,100305.81
2022-08-19T19:09:56.186Z,100323.06
2022-08-19T19:15:25.265Z,100322.94
2022-08-19T19:20:55.712Z,100350.03
2022-08-19T19:26:24.699Z,100336.16
2022-08-19T19:31:53.192Z,100345.63
2022-08-19T19:37:23.988Z,100341.22
2022-08-19T19:42:54.217Z,100342.34
2022-08-19T19:48:24.803Z,100338.66
2022-08-19T19:53:56.765Z,100333.44
2022-08-19T19:59:25.437Z,100342.38
2022-08-19T20:04:56.267Z,100338.25
2022-08-19T20:10:27.048Z,100336.91
2022-08-19T20:15:55.801Z,100335.16
2022-08-19T20:21:27.135Z,100335.88
2022-08-19T20:26:56.675Z,100340.88
2022-08-19T20:32:25.386Z,100338.63
2022-08-19T20:37:58.030Z,100345.16
2022-08-19T20:43:28.731Z,100336.47
2022-08-19T20:48:58.682Z,100339.50
2022-08-19T20:54:29.032Z,100336.13
2022-08-19T20:59:58.638Z,100340.88
2022-08-19T21:05:30.607Z,100329.47
2022-08-19T21:10:59.529Z,100314.31
2022-08-19T21:16:29.445Z,100318.16
2022-08-19T21:21:58.367Z,100315.09
2022-08-19T21:27:27.421Z,100313.97
2022-08-19T21:32:57.674Z,100300.66
2022-08-19T21:38:26.465Z,100297.72
2022-08-19T21:43:55.079Z,100292.25
2022-08-19T21:49:24.945Z,100284.28
2022-08-19T21:54:53.541Z,100280.91
2022-08-19T22:00:23.736Z,100290.78
2022-08-19T22:05:54.746Z,100279.50
2022-08-19T22:11:23.151Z,100282.69
2022-08-19T22:16:52.010Z,100292.06
2022-08-19T22:22:25.227Z,100286.78
2022-08-19T22:27:56.838Z,100291.53
2022-08-19T22:33:29.838Z,100276.38
2022-08-19T22:38:59.882Z,100277.38
2022-08-19T22:44:28.168Z,100286.78
2022-08-19T22:49:57.361Z,100287.25
2022-08-19T22:55:27.554Z,100281.41
2022-08-19T23:00:56.189Z,100288.69
2022-08-19T23:06:33.038Z,100294.06
2022-08-19T23:12:03.465Z,100296.78
2022-08-19T23:17:32.439Z,100295.66
2022-08-19T23:23:02.922Z,100300.81
2022-08-19T23:28:50.102Z,100302.44
2022-08-19T23:34:19.467Z,100306.03
2022-08-19T23:39:48.234Z,100314.22
2022-08-19T23:45:23.916Z,100317.78
2022-08-19T23:50:53.376Z,100323.31
2022-08-19T23:56:22.630Z,100314.97
